createdAt,value
2022-09-23T00:01:22.446Z,12.47
2022-09-23T00:03:50.400Z,11.10
2022-09-23T00:06:21.198Z,10.70
2022-09-23T00:08:52.151Z,12.90
2022-09-23T00:11:25.180Z,11.23
2022-09-23T00:13:58.062Z,10.27
2022-09-23T00:16:32.783Z,9.57
2022-09-23T00:19:04.682Z,10.13
2022-09-23T00:21:32.346Z,14.53
2022-09-23T00:24:00.575Z,12.40
2022-09-23T00:26:28.169Z,10.07
2022-09-23T00:28:55.928Z,11.33
2022-09-23T00:31:26.188Z,11.33
2022-09-23T00:34:01.239Z,12.37
2022-09-23T00:36:30.207Z,8.90
2022-09-23T00:38:59.343Z,7.30
2022-09-23T00:41:27.373Z,8.80
2022-09-23T00:43:57.909Z,8.70
2022-09-23T00:46:31.313Z,10.40
2022-09-23T00:49:14.073Z,10.63
2022-09-23T00:51:50.683Z,10.50
2022-09-23T00:54:19.014Z,9.63
2022-09-23T00:56:46.418Z,8.80
2022-09-23T00:59:14.142Z,8.50
2022-09-23T01:01:43.472Z,9.27
2022-09-23T01:04:10.859Z,9.30
2022-09-23T01:06:38.403Z,15.07
2022-09-23T01:09:06.080Z,14.37
2022-09-23T01:11:47.241Z,12.30
2022-09-23T01:14:27.128Z,11.07
2022-09-23T01:17:04.089Z,12.20
2022-09-23T01:19:44.911Z,11.33
2022-09-23T01:22:19.254Z,10.77
2022-09-23T01:25:32.111Z,11.27
2022-09-23T01:28:21.693Z,9.63
2022-09-23T01:31:17.676Z,11.70
2022-09-23T01:33:59.481Z,10.37
2022-09-23T01:36:39.953Z,9.33
2022-09-23T01:39:35.502Z,10.30
2022-09-23T01:42:17.143Z,10.57
2022-09-23T01:44:53.671Z,10.77
2022-09-23T01:47:36.217Z,9.23
2022-09-23T01:50:33.254Z,9.17
2022-09-23T01:53:06.377Z,8.33
2022-09-23T01:55:48.582Z,8.00
2022-09-23T01:58:24.770Z,8.37
2022-09-23T02:01:05.191Z,8.50
2022-09-23T02:03:49.582Z,8.50
2022-09-23T02:06:26.007Z,9.03
2022-09-23T02:09:02.117Z,8.80
2022-09-23T02:11:36.483Z,7.53
2022-09-23T02:14:27.082Z,8.03
2022-09-23T02:16:58.582Z,8.33
2022-09-23T02:19:41.998Z,7.90
2022-09-23T02:22:15.714Z,7.73
2022-09-23T02:24:45.280Z,7.63
2022-09-23T02:27:39.792Z,8.80
2022-09-23T02:30:19.252Z,7.73
2022-09-23T02:32:53.389Z,9.60
2022-09-23T02:35:33.130Z,10.30
2022-09-23T02:38:15.687Z,9.97
2022-09-23T02:41:05.331Z,8.43
2022-09-23T02:46:05.133Z,7.97
2022-09-23T02:48:38.114Z,7.50
2022-09-23T02:51:06.245Z,7.37
2022-09-23T02:53:35.017Z,8.47
2022-09-23T02:56:13.296Z,15.05
2022-09-23T02:58:41.096Z,12.90
2022-09-23T03:01:52.410Z,11.87
2022-09-23T03:04:38.957Z,11.33
2022-09-23T03:07:11.438Z,12.83
2022-09-23T03:09:49.231Z,11.50
2022-09-23T03:12:34.484Z,11.97
2022-09-23T03:15:14.479Z,17.93
2022-09-23T03:17:49.334Z,18.00
2022-09-23T03:20:44.876Z,14.40
2022-09-23T03:23:15.431Z,12.67
2022-09-23T03:25:47.507Z,12.40
2022-09-23T03:28:17.657Z,12.67
2022-09-23T03:30:47.842Z,13.93
2022-09-23T03:33:18.121Z,11.57
2022-09-23T03:36:13.640Z,10.30
2022-09-23T03:38:46.081Z,9.17
2022-09-23T03:41:17.770Z,12.13
2022-09-23T03:43:46.201Z,9.73
2022-09-23T03:46:18.558Z,9.95
2022-09-23T03:48:45.935Z,11.80
2022-09-23T03:51:24.702Z,14.40
2022-09-23T03:53:52.220Z,9.97
2022-09-23T03:56:19.882Z,8.83
2022-09-23T03:58:47.292Z,8.30
2022-09-23T04:01:16.114Z,17.90
2022-09-23T04:08:42.276Z,13.43
2022-09-23T04:11:10.552Z,14.13
2022-09-23T04:13:38.059Z,16.33
2022-09-23T04:16:06.334Z,17.13
2022-09-23T04:18:34.397Z,17.67
2022-09-23T04:21:02.655Z,19.73
2022-09-23T04:23:30.178Z,22.73
2022-09-23T04:25:57.973Z,17.30
2022-09-23T04:28:26.371Z,16.37
2022-09-23T04:30:55.228Z,21.37
2022-09-23T04:33:24.664Z,22.90
2022-09-23T04:35:52.561Z,21.95
2022-09-23T04:38:19.962Z,21.87
2022-09-23T04:40:48.693Z,17.67
2022-09-23T04:43:16.633Z,18.45
2022-09-23T04:45:44.491Z,17.33
2022-09-23T04:48:14.100Z,15.57
2022-09-23T04:50:42.727Z,14.02
2022-09-23T04:53:10.441Z,14.95
2022-09-23T04:55:38.155Z,17.73
2022-09-23T04:58:05.575Z,21.93
2022-09-23T05:00:33.678Z,17.33
2022-09-23T05:03:01.471Z,15.67
2022-09-23T05:05:31.377Z,14.77
2022-09-23T05:07:58.990Z,14.60
2022-09-23T05:10:26.717Z,12.13
2022-09-23T05:12:57.424Z,6.90
2022-09-23T05:15:25.352Z,8.13
2022-09-23T05:17:53.604Z,11.80
2022-09-23T05:20:21.600Z,8.70
2022-09-23T05:22:48.962Z,8.03
2022-09-23T05:25:16.953Z,8.33
2022-09-23T05:27:44.316Z,8.53
2022-09-23T05:30:11.919Z,9.13
2022-09-23T05:32:40.549Z,9.40
2022-09-23T05:35:08.346Z,9.57
2022-09-23T05:37:35.658Z,10.27
2022-09-23T05:40:04.407Z,10.50
2022-09-23T05:42:32.693Z,10.70
2022-09-23T05:45:00.129Z,10.17
2022-09-23T05:47:28.221Z,9.70
2022-09-23T05:50:00.182Z,10.00
2022-09-23T05:52:29.730Z,10.03
2022-09-23T05:54:57.114Z,10.60
2022-09-23T05:57:24.706Z,10.03
2022-09-23T05:59:53.262Z,9.90
2022-09-23T06:02:20.667Z,10.37
2022-09-23T06:04:48.586Z,11.13
2022-09-23T06:07:16.327Z,10.43
2022-09-23T06:09:44.237Z,11.47
2022-09-23T06:12:14.254Z,11.40
2022-09-23T06:14:42.517Z,11.30
2022-09-23T06:17:09.830Z,10.97
2022-09-23T06:19:37.471Z,10.13
2022-09-23T06:22:05.022Z,9.77
2022-09-23T06:24:32.417Z,10.60
2022-09-23T06:27:01.159Z,10.83
2022-09-23T06:29:31.022Z,11.98
2022-09-23T06:32:00.152Z,20.03
2022-09-23T06:34:28.402Z,14.60
2022-09-23T06:36:55.964Z,16.23
2022-09-23T06:39:23.556Z,8.77
2022-09-23T06:41:51.406Z,7.07
2022-09-23T06:44:19.111Z,7.60
2022-09-23T06:46:46.553Z,7.43
2022-09-23T06:49:15.084Z,7.47
2022-09-23T06:51:43.149Z,7.00
2022-09-23T06:54:11.308Z,8.83
2022-09-23T06:56:40.262Z,9.15
2022-09-23T06:59:11.186Z,9.10
2022-09-23T07:01:39.380Z,9.03
2022-09-23T07:04:08.067Z,9.93
2022-09-23T07:06:35.837Z,11.55
2022-09-23T07:09:05.797Z,10.13
2022-09-23T07:14:01.034Z,10.50
2022-09-23T07:16:29.099Z,10.03
2022-09-23T07:18:56.829Z,9.10
2022-09-23T07:21:24.474Z,8.40
2022-09-23T07:23:53.786Z,8.40
2022-09-23T07:26:23.317Z,8.15
2022-09-23T07:29:04.937Z,7.47
2022-09-23T07:31:39.615Z,7.77
2022-09-23T07:34:11.870Z,6.13
2022-09-23T07:36:41.520Z,8.10
2022-09-23T07:39:12.720Z,8.70
2022-09-23T07:41:44.820Z,7.90
2022-09-23T07:44:13.171Z,7.00
2022-09-23T07:46:41.318Z,6.12
2022-09-23T07:49:09.008Z,7.80
2022-09-23T07:51:38.956Z,8.50
2022-09-23T07:54:10.087Z,6.27
2022-09-23T07:56:38.649Z,5.93
2022-09-23T07:59:09.208Z,7.00
2022-09-23T08:01:40.249Z,6.07
2022-09-23T08:04:19.241Z,6.33
2022-09-23T08:06:54.557Z,6.67
2022-09-23T08:09:25.709Z,6.60
2022-09-23T08:11:54.446Z,7.77
2022-09-23T08:14:25.177Z,6.18
2022-09-23T08:16:52.958Z,6.37
2022-09-23T08:19:20.899Z,5.03
2022-09-23T08:21:52.742Z,5.07
2022-09-23T08:24:25.177Z,5.20
2022-09-23T08:26:54.780Z,5.80
2022-09-23T08:29:24.370Z,6.20
2022-09-23T08:31:52.825Z,5.90
2022-09-23T08:36:49.499Z,4.90
2022-09-23T08:39:18.863Z,5.00
2022-09-23T08:41:49.772Z,5.80
2022-09-23T08:44:24.302Z,5.40
2022-09-23T08:47:12.119Z,5.23
2022-09-23T08:49:47.273Z,4.87
2022-09-23T08:52:27.331Z,4.90
2022-09-23T08:54:56.061Z,4.63
2022-09-23T08:57:40.270Z,4.57
2022-09-23T09:00:17.904Z,3.80
2022-09-23T09:02:45.920Z,4.10
2022-09-23T09:05:20.070Z,3.33
2022-09-23T09:07:47.858Z,5.40
2022-09-23T09:10:46.880Z,4.20
2022-09-23T09:13:30.590Z,3.83
2022-09-23T09:16:48.380Z,3.77
2022-09-23T09:19:38.892Z,4.30
2022-09-23T09:22:12.499Z,3.80
2022-09-23T09:24:40.412Z,3.77
2022-09-23T09:27:13.202Z,3.80
2022-09-23T09:29:49.846Z,3.70
2022-09-23T09:32:29.668Z,4.33
2022-09-23T09:35:05.795Z,3.83
2022-09-23T09:37:47.694Z,3.90
2022-09-23T09:40:20.781Z,2.97
2022-09-23T09:42:50.461Z,2.80
2022-09-23T09:45:26.563Z,3.37
2022-09-23T09:48:06.126Z,2.90
2022-09-23T09:50:47.607Z,2.80
2022-09-23T09:53:17.136Z,3.23
2022-09-23T09:55:46.261Z,3.10
2022-09-23T09:58:16.592Z,3.05
2022-09-23T10:00:46.475Z,3.27
2022-09-23T10:03:14.470Z,3.60
2022-09-23T10:05:45.593Z,3.37
2022-09-23T10:08:32.586Z,3.30
2022-09-23T10:11:03.396Z,3.53
2022-09-23T10:13:32.118Z,3.27
2022-09-23T10:16:04.089Z,3.05
2022-09-23T10:18:48.374Z,2.27
2022-09-23T10:21:24.190Z,2.40
2022-09-23T10:24:01.870Z,2.83
2022-09-23T10:26:55.828Z,3.25
2022-09-23T10:29:39.101Z,1.98
2022-09-23T10:32:37.929Z,3.90
2022-09-23T10:35:13.544Z,2.70
2022-09-23T10:37:50.516Z,4.32
2022-09-23T10:40:46.074Z,3.05
2022-09-23T10:43:41.791Z,2.53
2022-09-23T10:46:39.256Z,2.87
2022-09-23T10:52:00.082Z,2.20
2022-09-23T10:54:46.911Z,1.70
2022-09-23T10:57:38.255Z,2.10
2022-09-23T11:00:12.691Z,2.42
2022-09-23T11:02:56.346Z,2.20
2022-09-23T11:06:04.944Z,2.78
2022-09-23T11:08:42.807Z,2.40
2022-09-23T11:11:34.304Z,2.60
2022-09-23T11:14:41.348Z,2.37
2022-09-23T11:17:12.969Z,2.95
2022-09-23T11:20:16.201Z,2.37
2022-09-23T11:23:26.746Z,2.37
2022-09-23T11:26:19.826Z,2.53
2022-09-23T11:28:58.869Z,2.97
2022-09-23T11:31:43.066Z,1.83
2022-09-23T11:34:35.437Z,1.70
2022-09-23T11:37:20.504Z,2.03
2022-09-23T11:40:11.569Z,2.62
2022-09-23T11:42:55.441Z,2.10
2022-09-23T11:45:30.888Z,2.22
2022-09-23T11:48:06.145Z,2.00
2022-09-23T11:50:59.576Z,7.55
2022-09-23T11:53:43.355Z,2.58
2022-09-23T11:56:34.622Z,2.40
2022-09-23T11:59:31.447Z,2.15
2022-09-23T12:02:21.411Z,2.08
2022-09-23T12:05:02.999Z,2.70
2022-09-23T12:07:46.984Z,2.83
2022-09-23T12:10:16.195Z,12.75
2022-09-23T12:16:10.314Z,1.90
2022-09-23T12:18:51.886Z,1.73
2022-09-23T12:21:50.140Z,2.03
2022-09-23T12:24:35.117Z,2.28
2022-09-23T12:27:09.324Z,2.10
2022-09-23T12:29:40.075Z,1.50
2022-09-23T12:32:13.206Z,1.73
2022-09-23T12:34:49.201Z,1.35
2022-09-23T12:37:24.692Z,1.77
2022-09-23T12:39:52.600Z,1.55
2022-09-23T12:42:27.689Z,1.60
2022-09-23T12:45:32.699Z,2.30
2022-09-23T12:48:24.733Z,1.50
2022-09-23T12:51:12.830Z,1.80
2022-09-23T12:53:53.520Z,2.47
2022-09-23T12:56:25.394Z,1.98
2022-09-23T12:59:01.450Z,3.70
2022-09-23T13:01:37.351Z,1.60
2022-09-23T13:04:24.309Z,1.75
2022-09-23T13:06:58.961Z,1.52
2022-09-23T13:09:30.992Z,1.48
2022-09-23T13:12:02.160Z,3.00
2022-09-23T13:14:32.988Z,3.08
2022-09-23T13:17:00.919Z,2.05
2022-09-23T13:19:28.321Z,2.20
2022-09-23T13:22:09.336Z,2.20
2022-09-23T13:24:40.299Z,4.25
2022-09-23T13:27:23.262Z,1.98
2022-09-23T13:29:56.641Z,2.15
2022-09-23T13:32:39.754Z,2.20
2022-09-23T13:35:20.103Z,2.90
2022-09-23T13:37:50.010Z,2.30
2022-09-23T13:40:24.527Z,2.62
2022-09-23T13:43:05.340Z,2.10
2022-09-23T13:45:38.355Z,2.83
2022-09-23T13:48:11.729Z,2.55
2022-09-23T13:50:41.104Z,2.37
2022-09-23T13:53:17.576Z,2.60
2022-09-23T13:55:48.993Z,3.65
2022-09-23T13:58:22.615Z,2.17
2022-09-23T14:00:51.175Z,2.28
2022-09-23T14:05:56.612Z,3.55
2022-09-23T14:08:25.364Z,3.30
2022-09-23T14:10:54.004Z,2.20
2022-09-23T14:13:28.389Z,2.03
2022-09-23T14:15:59.734Z,2.72
2022-09-23T14:18:36.704Z,2.33
2022-09-23T14:21:05.361Z,2.40
2022-09-23T14:23:33.193Z,2.60
2022-09-23T14:26:02.771Z,9.60
2022-09-23T14:28:30.693Z,3.80
2022-09-23T14:30:58.686Z,4.65
2022-09-23T14:33:30.905Z,2.90
2022-09-23T14:36:44.318Z,4.30
2022-09-23T14:39:12.810Z,4.40
2022-09-23T14:41:43.982Z,5.60
2022-09-23T14:44:25.400Z,4.97
2022-09-23T14:46:57.472Z,4.03
2022-09-23T14:49:26.055Z,3.65
2022-09-23T14:52:04.289Z,3.67
2022-09-23T14:54:51.077Z,3.20
2022-09-23T14:57:30.671Z,2.28
2022-09-23T15:00:08.217Z,2.97
2022-09-23T15:02:38.389Z,3.15
2022-09-23T15:05:19.074Z,2.85
2022-09-23T15:07:52.540Z,2.65
2022-09-23T15:10:30.452Z,4.43
2022-09-23T15:13:27.279Z,2.45
2022-09-23T15:15:55.849Z,2.67
2022-09-23T15:18:26.752Z,2.75
2022-09-23T15:20:58.192Z,2.28
2022-09-23T15:23:44.571Z,2.65
2022-09-23T15:26:18.915Z,1.70
2022-09-23T15:28:47.884Z,2.97
2022-09-23T15:31:19.894Z,4.47
2022-09-23T15:33:49.283Z,3.45
2022-09-23T15:36:20.006Z,3.67
2022-09-23T15:38:48.421Z,4.65
2022-09-23T15:41:17.570Z,4.10
2022-09-23T15:43:46.197Z,2.55
2022-09-23T15:48:58.974Z,4.63
2022-09-23T15:51:27.804Z,5.37
2022-09-23T15:53:56.560Z,5.07
2022-09-23T15:56:24.976Z,11.20
2022-09-23T15:58:53.011Z,7.25
2022-09-23T16:01:20.498Z,7.37
2022-09-23T16:03:48.168Z,6.70
2022-09-23T16:06:16.100Z,8.67
2022-09-23T16:08:43.718Z,8.90
2022-09-23T16:11:27.086Z,8.77
2022-09-23T16:13:54.684Z,4.60
2022-09-23T16:16:22.723Z,4.20
2022-09-23T16:18:53.255Z,5.20
2022-09-23T16:21:24.498Z,4.10
2022-09-23T16:23:53.592Z,3.03
2022-09-23T16:26:24.481Z,4.95
2022-09-23T16:28:54.889Z,4.03
2022-09-23T16:31:25.456Z,9.27
2022-09-23T16:33:53.905Z,3.00
2022-09-23T16:36:27.537Z,2.77
2022-09-23T16:38:56.022Z,10.70
2022-09-23T16:41:25.298Z,10.23
2022-09-23T16:43:53.773Z,9.87
2022-09-23T16:46:24.079Z,15.02
2022-09-23T16:48:53.119Z,6.53
2022-09-23T16:51:23.990Z,5.90
2022-09-23T16:53:51.765Z,5.00
2022-09-23T16:56:27.277Z,3.57
2022-09-23T16:58:57.150Z,3.50
2022-09-23T17:01:46.365Z,3.87
2022-09-23T17:04:15.968Z,3.43
2022-09-23T17:06:50.643Z,5.43
2022-09-23T17:09:20.976Z,4.60
2022-09-23T17:12:02.412Z,27.43
2022-09-23T17:14:34.789Z,4.03
2022-09-23T17:17:02.119Z,3.23
2022-09-23T17:19:29.859Z,75.20
2022-09-23T17:21:57.174Z,101.60
2022-09-23T17:24:24.613Z,43.63
2022-09-23T17:26:53.409Z,43.53
2022-09-23T17:29:21.004Z,83.68
2022-09-23T17:31:48.509Z,54.30
2022-09-23T17:34:18.935Z,36.90
2022-09-23T17:36:46.324Z,27.47
2022-09-23T17:39:14.134Z,24.40
2022-09-23T17:41:41.896Z,25.47
2022-09-23T17:44:12.173Z,27.37
2022-09-23T17:46:39.496Z,34.17
2022-09-23T17:49:08.567Z,36.97
2022-09-23T17:51:36.322Z,35.58
2022-09-23T17:54:03.840Z,43.33
2022-09-23T17:56:31.581Z,29.07
2022-09-23T17:59:03.016Z,32.10
2022-09-23T18:01:30.896Z,29.70
2022-09-23T18:04:00.915Z,24.73
2022-09-23T18:06:33.698Z,24.60
2022-09-23T18:09:06.087Z,19.93
2022-09-23T18:11:36.192Z,15.37
2022-09-23T18:14:07.011Z,15.63
2022-09-23T18:16:37.729Z,13.57
2022-09-23T18:19:07.230Z,13.53
2022-09-23T18:24:28.147Z,13.20
2022-09-23T18:26:51.172Z,13.73
2022-09-23T18:29:19.806Z,19.00
2022-09-23T18:31:47.582Z,17.95
2022-09-23T18:34:20.729Z,12.57
2022-09-23T18:36:48.210Z,26.27
2022-09-23T18:39:15.931Z,22.57
2022-09-23T18:41:43.326Z,17.17
2022-09-23T18:44:11.316Z,16.87
2022-09-23T18:46:39.941Z,22.58
2022-09-23T18:49:26.016Z,22.50
2022-09-23T18:51:58.606Z,39.83
2022-09-23T18:54:28.937Z,25.93
2022-09-23T18:56:56.972Z,18.97
2022-09-23T18:59:30.001Z,22.23
2022-09-23T19:01:58.597Z,25.73
2022-09-23T19:04:27.460Z,25.70
2022-09-23T19:06:56.817Z,26.40
2022-09-23T19:09:24.897Z,24.60
2022-09-23T19:11:52.829Z,31.50
2022-09-23T19:14:20.446Z,18.63
2022-09-23T19:16:49.467Z,16.33
2022-09-23T19:19:16.957Z,14.57
2022-09-23T19:21:44.365Z,14.27
2022-09-23T19:24:16.304Z,12.17
2022-09-23T19:26:44.455Z,11.87
2022-09-23T19:29:15.827Z,12.60
2022-09-23T19:31:43.572Z,11.47
2022-09-23T19:34:20.158Z,10.33
2022-09-23T19:36:47.944Z,8.47
2022-09-23T19:39:17.503Z,8.73
2022-09-23T19:41:45.489Z,16.17
2022-09-23T19:44:13.516Z,11.27
2022-09-23T19:46:44.628Z,12.17
2022-09-23T19:49:12.288Z,9.80
2022-09-23T19:51:40.329Z,9.90
2022-09-23T19:54:09.383Z,9.20
2022-09-23T19:59:07.407Z,10.60
2022-09-23T20:01:35.860Z,9.03
2022-09-23T20:04:04.580Z,30.88
2022-09-23T20:06:34.247Z,27.23
2022-09-23T20:09:02.071Z,12.30
2022-09-23T20:11:30.427Z,10.13
2022-09-23T20:14:01.918Z,9.60
2022-09-23T20:16:35.791Z,13.90
2022-09-23T20:19:05.088Z,22.50
2022-09-23T20:21:33.958Z,12.20
2022-09-23T20:24:02.179Z,9.75
2022-09-23T20:26:47.975Z,7.90
2022-09-23T20:29:15.756Z,7.40
2022-09-23T20:31:43.662Z,8.57
2022-09-23T20:34:12.476Z,11.70
2022-09-23T20:36:41.510Z,17.42
2022-09-23T20:39:10.084Z,18.73
2022-09-23T20:41:39.421Z,17.17
2022-09-23T20:44:10.485Z,22.63
2022-09-23T20:46:39.075Z,22.40
2022-09-23T20:49:08.962Z,18.40
2022-09-23T20:51:37.720Z,16.80
2022-09-23T20:54:05.087Z,17.25
2022-09-23T20:56:32.835Z,22.17
2022-09-23T20:59:01.404Z,12.03
2022-09-23T21:01:28.904Z,10.63
2022-09-23T21:03:56.714Z,13.77
2022-09-23T21:06:25.353Z,13.13
2022-09-23T21:08:53.904Z,17.37
2022-09-23T21:11:22.151Z,15.02
2022-09-23T21:13:51.459Z,15.30
2022-09-23T21:16:22.809Z,14.53
2022-09-23T21:18:51.933Z,13.83
2022-09-23T21:21:22.433Z,12.23
2022-09-23T21:23:51.401Z,10.33
2022-09-23T21:26:25.595Z,8.43
2022-09-23T21:28:57.157Z,10.10
2022-09-23T21:31:27.425Z,13.17
2022-09-23T21:33:57.218Z,13.13
2022-09-23T21:36:27.613Z,8.10
2022-09-23T21:38:58.338Z,6.23
2022-09-23T21:41:26.876Z,5.73
2022-09-23T21:43:56.453Z,7.47
2022-09-23T21:46:25.622Z,9.43
2022-09-23T21:48:55.123Z,17.00
2022-09-23T21:51:25.655Z,13.27
2022-09-23T21:53:55.812Z,10.00
2022-09-23T21:56:27.361Z,10.37
2022-09-23T21:58:58.398Z,10.83
2022-09-23T22:01:33.572Z,12.07
2022-09-23T22:04:05.382Z,9.73
2022-09-23T22:06:33.425Z,11.87
2022-09-23T22:09:03.958Z,23.87
2022-09-23T22:11:51.920Z,13.70
2022-09-23T22:14:23.488Z,11.77
2022-09-23T22:16:50.820Z,9.40
2022-09-23T22:19:18.085Z,9.03
2022-09-23T22:21:45.814Z,8.60
2022-09-23T22:24:13.503Z,9.07
2022-09-23T22:26:43.720Z,9.47
2022-09-23T22:29:32.924Z,9.60
2022-09-23T22:32:20.327Z,9.68
2022-09-23T22:34:50.981Z,14.23
2022-09-23T22:37:28.208Z,17.07
2022-09-23T22:39:57.061Z,22.27
2022-09-23T22:42:24.541Z,23.50
2022-09-23T22:44:52.622Z,19.83
2022-09-23T22:47:20.756Z,24.12
2022-09-23T22:49:48.626Z,23.47
2022-09-23T22:52:21.275Z,21.20
2022-09-23T22:54:49.800Z,21.80
2022-09-23T22:57:17.492Z,20.90
2022-09-23T22:59:48.248Z,17.10
2022-09-23T23:02:18.529Z,18.60
2022-09-23T23:04:49.569Z,18.67
2022-09-23T23:07:24.369Z,16.63
2022-09-23T23:09:52.498Z,16.30
2022-09-23T23:12:21.472Z,14.63
2022-09-23T23:14:49.500Z,14.60
2022-09-23T23:17:17.451Z,15.30
2022-09-23T23:19:45.273Z,14.90
2022-09-23T23:22:12.583Z,15.03
2022-09-23T23:24:40.070Z,15.33
2022-09-23T23:27:07.776Z,14.77
2022-09-23T23:29:35.123Z,12.27
2022-09-23T23:32:02.716Z,9.53
2022-09-23T23:34:30.480Z,10.87
2022-09-23T23:36:57.892Z,9.97
2022-09-23T23:39:25.750Z,10.60
2022-09-23T23:41:57.958Z,12.77
2022-09-23T23:44:26.630Z,13.47
2022-09-23T23:46:55.266Z,12.43
2022-09-23T23:49:23.113Z,13.35
2022-09-23T23:51:50.454Z,12.23
2022-09-23T23:54:18.123Z,13.30
2022-09-23T23:56:45.684Z,10.30
2022-09-23T23:59:13.625Z,8.93
